createdAt,value
2019-04-29T00:00:49.208Z,8.11
2019-04-29T00:03:19.535Z,8.16
2019-04-29T00:05:50.102Z,7.93
2019-04-29T00:08:20.225Z,7.89
2019-04-29T00:13:45.597Z,7.84
2019-04-29T00:16:17.415Z,7.77
2019-04-29T00:18:51.539Z,7.97
2019-04-29T00:21:22.894Z,7.81
2019-04-29T00:24:03.615Z,7.71
2019-04-29T00:26:24.924Z,7.61
2019-04-29T00:28:55.019Z,7.49
2019-04-29T00:31:25.240Z,7.42
2019-04-29T00:33:55.247Z,7.39
2019-04-29T00:36:26.963Z,7.23
2019-04-29T00:38:58.677Z,7.23
2019-04-29T00:41:37.363Z,7.33
2019-04-29T00:44:09.199Z,7.13
2019-04-29T00:46:39.334Z,7.09
2019-04-29T00:49:09.344Z,7.13
2019-04-29T00:51:39.537Z,7.17
2019-04-29T00:54:12.340Z,7.09
2019-04-29T00:56:42.507Z,7.07
2019-04-29T00:59:12.523Z,6.99
2019-04-29T01:01:43.259Z,6.95
2019-04-29T01:04:13.345Z,6.96
2019-04-29T01:06:43.350Z,6.93
2019-04-29T01:09:14.816Z,6.83
2019-04-29T01:11:44.876Z,6.86
2019-04-29T01:14:14.883Z,6.79
2019-04-29T01:16:44.893Z,6.74
2019-04-29T01:19:14.981Z,6.82
2019-04-29T01:21:44.975Z,6.75
2019-04-29T01:24:14.989Z,6.61
2019-04-29T01:26:47.709Z,6.61
2019-04-29T01:29:19.350Z,6.52
2019-04-29T01:31:49.555Z,6.58
2019-04-29T01:34:21.202Z,6.56
2019-04-29T01:36:51.214Z,6.56
2019-04-29T01:39:22.938Z,6.52
2019-04-29T01:42:00.540Z,6.51
2019-04-29T01:44:32.330Z,6.20
2019-04-29T01:47:02.320Z,6.42
2019-04-29T01:49:32.341Z,6.32
2019-04-29T01:52:02.433Z,6.48
2019-04-29T01:54:32.592Z,6.30
2019-04-29T01:57:02.532Z,6.22
2019-04-29T01:59:32.541Z,6.11
2019-04-29T02:02:02.595Z,5.94
2019-04-29T02:04:32.621Z,5.73
2019-04-29T02:07:02.617Z,5.77
2019-04-29T02:09:34.288Z,5.80
2019-04-29T02:12:04.441Z,5.69
2019-04-29T02:14:34.447Z,5.91
2019-04-29T02:17:04.627Z,5.93
2019-04-29T02:19:34.617Z,5.84
2019-04-29T02:22:12.149Z,5.81
2019-04-29T02:24:43.800Z,5.68
2019-04-29T02:27:13.865Z,5.70
2019-04-29T02:29:43.868Z,5.75
2019-04-29T02:32:13.877Z,5.76
2019-04-29T02:34:43.891Z,5.50
2019-04-29T02:37:15.580Z,5.49
2019-04-29T02:39:55.804Z,5.45
2019-04-29T02:42:39.556Z,5.35
2019-04-29T02:45:11.888Z,5.38
2019-04-29T02:47:41.941Z,5.24
2019-04-29T02:50:12.007Z,5.23
2019-04-29T02:52:42.110Z,5.30
2019-04-29T02:55:14.373Z,5.35
2019-04-29T02:57:51.625Z,5.21
2019-04-29T03:00:26.350Z,4.99
2019-04-29T03:03:00.859Z,4.98
2019-04-29T03:05:34.952Z,4.90
2019-04-29T03:08:05.097Z,4.99
2019-04-29T03:10:35.146Z,4.90
2019-04-29T03:13:06.110Z,5.03
2019-04-29T03:15:39.161Z,5.05
2019-04-29T03:18:09.353Z,4.90
2019-04-29T03:20:41.159Z,4.82
2019-04-29T03:23:15.911Z,4.73
2019-04-29T03:25:45.969Z,4.77
2019-04-29T03:28:15.991Z,4.74
2019-04-29T03:30:45.993Z,4.69
2019-04-29T03:33:15.978Z,4.79
2019-04-29T03:35:45.993Z,4.69
2019-04-29T03:38:16.136Z,4.54
2019-04-29T03:40:47.281Z,4.65
2019-04-29T03:43:17.274Z,4.67
2019-04-29T03:45:47.292Z,4.76
2019-04-29T03:48:17.274Z,4.71
2019-04-29T03:50:47.408Z,4.68
2019-04-29T03:53:17.410Z,4.56
2019-04-29T03:55:47.431Z,4.51
2019-04-29T03:58:17.449Z,4.53
2019-04-29T04:00:49.080Z,4.53
2019-04-29T04:03:23.156Z,4.43
2019-04-29T04:05:57.394Z,4.42
2019-04-29T04:08:29.046Z,4.49
2019-04-29T04:11:11.098Z,4.58
2019-04-29T04:13:41.141Z,4.73
2019-04-29T04:16:12.852Z,4.68
2019-04-29T04:18:42.951Z,4.65
2019-04-29T04:21:12.968Z,4.73
2019-04-29T04:23:43.038Z,4.56
2019-04-29T04:26:13.052Z,4.71
2019-04-29T04:28:44.113Z,4.72
2019-04-29T04:31:14.116Z,4.79
2019-04-29T04:33:44.194Z,4.85
2019-04-29T04:36:14.263Z,4.88
2019-04-29T04:38:44.269Z,4.80
2019-04-29T04:41:14.265Z,4.97
2019-04-29T04:43:44.283Z,5.00
2019-04-29T04:46:14.329Z,4.94
2019-04-29T04:48:44.326Z,5.03
2019-04-29T04:51:14.398Z,5.09
2019-04-29T04:53:45.500Z,5.17
2019-04-29T04:56:15.501Z,5.26
2019-04-29T04:58:45.524Z,5.28
2019-04-29T05:01:15.549Z,5.36
2019-04-29T05:03:45.556Z,5.50
2019-04-29T05:06:16.706Z,5.51
2019-04-29T05:08:46.764Z,5.60
2019-04-29T05:11:36.408Z,5.74
2019-04-29T05:14:06.689Z,5.68
2019-04-29T05:16:36.683Z,5.83
2019-04-29T05:19:06.689Z,5.82
2019-04-29T05:21:36.688Z,6.02
2019-04-29T05:24:06.716Z,6.02
2019-04-29T05:26:36.703Z,5.98
2019-04-29T05:29:06.691Z,6.13
2019-04-29T05:31:36.682Z,6.28
2019-04-29T05:34:06.682Z,6.30
2019-04-29T05:36:45.211Z,6.47
2019-04-29T05:39:16.833Z,6.54
2019-04-29T05:41:46.841Z,6.67
2019-04-29T05:44:19.119Z,6.75
2019-04-29T05:46:57.109Z,6.81
2019-04-29T05:49:28.744Z,6.85
2019-04-29T05:52:16.511Z,7.04
2019-04-29T05:54:47.133Z,7.12
2019-04-29T05:57:20.467Z,7.30
2019-04-29T05:59:49.559Z,7.44
2019-04-29T06:02:24.002Z,7.44
2019-04-29T06:04:53.954Z,7.56
2019-04-29T06:07:26.759Z,7.71
2019-04-29T06:09:55.842Z,7.76
2019-04-29T06:12:25.892Z,7.86
2019-04-29T06:14:55.893Z,8.01
2019-04-29T06:17:25.896Z,8.20
2019-04-29T06:19:55.948Z,8.26
2019-04-29T06:22:25.936Z,8.36
2019-04-29T06:24:55.964Z,8.44
2019-04-29T06:27:25.976Z,8.46
2019-04-29T06:29:58.490Z,8.63
2019-04-29T06:32:27.708Z,8.62
2019-04-29T06:34:57.779Z,8.50
2019-04-29T06:37:28.847Z,8.60
2019-04-29T06:39:58.887Z,8.75
2019-04-29T06:42:28.883Z,8.89
2019-04-29T06:44:58.942Z,8.95
2019-04-29T06:47:28.936Z,9.07
2019-04-29T06:49:58.994Z,9.13
2019-04-29T06:52:28.995Z,9.25
2019-04-29T06:54:58.993Z,9.40
2019-04-29T06:57:29.030Z,9.47
2019-04-29T06:59:59.487Z,9.58
2019-04-29T07:02:29.523Z,9.82
2019-04-29T07:04:59.517Z,10.07
2019-04-29T07:07:29.524Z,10.22
2019-04-29T07:09:59.588Z,10.23
2019-04-29T07:12:29.711Z,10.42
2019-04-29T07:14:59.728Z,10.40
2019-04-29T07:17:29.741Z,10.59
2019-04-29T07:20:02.007Z,10.58
2019-04-29T07:22:31.700Z,10.73
2019-04-29T07:25:01.722Z,10.79
2019-04-29T07:27:34.497Z,11.09
2019-04-29T07:30:06.439Z,11.23
2019-04-29T07:32:37.186Z,11.26
2019-04-29T07:35:09.770Z,11.27
2019-04-29T07:37:39.528Z,11.28
2019-04-29T07:40:11.241Z,11.35
2019-04-29T07:42:41.286Z,11.49
2019-04-29T07:45:23.744Z,11.30
2019-04-29T07:47:56.673Z,11.62
2019-04-29T07:50:26.809Z,11.71
2019-04-29T07:52:56.988Z,11.55
2019-04-29T07:55:30.841Z,11.71
2019-04-29T07:57:58.760Z,12.10
2019-04-29T08:00:34.697Z,11.95
2019-04-29T08:03:07.025Z,12.10
2019-04-29T08:05:37.217Z,12.53
2019-04-29T08:08:07.223Z,12.06
2019-04-29T08:10:37.307Z,12.21
2019-04-29T08:13:07.547Z,12.55
2019-04-29T08:15:41.616Z,12.78
2019-04-29T08:18:11.436Z,12.74
2019-04-29T08:20:41.461Z,12.96
2019-04-29T08:23:11.503Z,13.25
2019-04-29T08:25:41.559Z,12.92
2019-04-29T08:28:11.559Z,13.37
2019-04-29T08:30:45.433Z,12.98
2019-04-29T08:33:13.348Z,13.57
2019-04-29T08:35:46.711Z,13.52
2019-04-29T08:38:16.155Z,13.49
2019-04-29T08:40:50.066Z,13.72
2019-04-29T08:43:31.814Z,14.08
2019-04-29T08:46:03.451Z,14.21
2019-04-29T08:48:33.475Z,14.28
2019-04-29T08:51:03.462Z,14.11
2019-04-29T08:53:33.472Z,14.48
2019-04-29T08:56:05.591Z,14.59
2019-04-29T08:58:35.316Z,14.48
2019-04-29T09:01:05.392Z,14.70
2019-04-29T09:03:40.332Z,14.66
2019-04-29T09:06:07.220Z,14.62
2019-04-29T09:08:37.311Z,14.88
2019-04-29T09:11:12.239Z,14.97
2019-04-29T09:13:39.157Z,15.11
2019-04-29T09:16:09.594Z,15.39
2019-04-29T09:18:39.594Z,15.72
2019-04-29T09:21:09.606Z,15.69
2019-04-29T09:23:39.660Z,16.04
2019-04-29T09:26:14.328Z,16.28
2019-04-29T09:28:44.457Z,16.21
2019-04-29T09:31:14.636Z,16.56
2019-04-29T09:33:49.146Z,17.51
2019-04-29T09:36:16.350Z,16.88
2019-04-29T09:38:46.335Z,16.40
2019-04-29T09:41:37.371Z,16.66
2019-04-29T09:44:27.502Z,16.27
2019-04-29T09:46:57.579Z,17.09
2019-04-29T09:49:27.646Z,16.75
2019-04-29T09:51:57.658Z,16.95
2019-04-29T09:54:27.714Z,17.91
2019-04-29T09:56:58.701Z,17.60
2019-04-29T09:59:33.191Z,18.99
2019-04-29T10:02:11.104Z,18.84
2019-04-29T10:05:00.718Z,20.10
2019-04-29T10:07:31.402Z,20.57
2019-04-29T10:10:02.226Z,20.50
2019-04-29T10:12:34.349Z,19.59
2019-04-29T10:15:07.132Z,18.49
2019-04-29T10:17:41.623Z,18.76
2019-04-29T10:20:25.432Z,20.04
2019-04-29T10:22:55.528Z,19.63
2019-04-29T10:25:25.526Z,20.20
2019-04-29T10:27:55.540Z,19.09
2019-04-29T10:30:31.122Z,19.81
2019-04-29T10:32:59.139Z,19.47
2019-04-29T10:35:29.208Z,19.81
2019-04-29T10:38:02.868Z,21.60
2019-04-29T10:40:38.749Z,20.27
2019-04-29T10:45:54.578Z,19.46
2019-04-29T10:48:35.380Z,19.54
2019-04-29T10:51:07.138Z,19.71
2019-04-29T10:53:37.149Z,20.14
2019-04-29T10:56:07.290Z,20.70
2019-04-29T10:58:38.420Z,21.66
2019-04-29T11:01:22.239Z,22.97
2019-04-29T11:03:55.834Z,23.36
2019-04-29T11:06:24.290Z,21.64
2019-04-29T11:09:14.514Z,21.25
2019-04-29T11:11:45.698Z,22.03
2019-04-29T11:14:15.978Z,21.95
2019-04-29T11:16:47.089Z,22.57
2019-04-29T11:19:18.180Z,22.82
2019-04-29T11:21:48.344Z,23.39
2019-04-29T11:24:26.744Z,23.21
2019-04-29T11:27:11.558Z,21.70
2019-04-29T11:29:35.682Z,22.97
2019-04-29T11:32:06.675Z,24.27
2019-04-29T11:34:48.405Z,22.94
2019-04-29T11:37:19.577Z,25.09
2019-04-29T11:39:50.349Z,25.86
2019-04-29T11:42:21.883Z,24.46
2019-04-29T11:44:51.974Z,23.51
2019-04-29T11:47:25.164Z,23.21
2019-04-29T11:50:01.164Z,25.66
2019-04-29T11:52:31.250Z,26.02
2019-04-29T11:55:01.547Z,26.27
2019-04-29T11:57:40.719Z,26.47
2019-04-29T12:00:25.350Z,26.02
2019-04-29T12:02:57.152Z,25.45
2019-04-29T12:05:28.863Z,25.40
2019-04-29T12:07:58.867Z,27.14
2019-04-29T12:10:28.928Z,26.68
2019-04-29T12:13:00.580Z,26.81
2019-04-29T12:15:34.759Z,26.10
2019-04-29T12:18:12.458Z,24.40
2019-04-29T12:20:46.909Z,26.60
2019-04-29T12:23:17.966Z,27.05
2019-04-29T12:25:47.982Z,26.94
2019-04-29T12:28:19.178Z,27.85
2019-04-29T12:30:51.474Z,27.61
2019-04-29T12:33:23.211Z,27.99
2019-04-29T12:36:03.339Z,27.30
2019-04-29T12:38:48.849Z,26.34
2019-04-29T12:41:47.696Z,27.58
2019-04-29T12:44:07.655Z,28.13
2019-04-29T12:46:39.299Z,28.04
2019-04-29T12:49:13.418Z,28.17
2019-04-29T12:51:41.167Z,27.87
2019-04-29T12:54:11.197Z,28.25
2019-04-29T12:56:43.300Z,28.74
2019-04-29T12:59:13.592Z,28.10
2019-04-29T13:01:51.536Z,27.44
2019-04-29T13:04:35.145Z,27.39
2019-04-29T13:07:12.895Z,28.36
2019-04-29T13:09:53.761Z,27.90
2019-04-29T13:12:23.826Z,28.75
2019-04-29T13:15:02.508Z,28.08
2019-04-29T13:17:40.559Z,28.32
2019-04-29T13:20:13.124Z,28.12
2019-04-29T13:22:43.244Z,27.24
2019-04-29T13:25:15.579Z,27.72
2019-04-29T13:27:45.311Z,27.72
2019-04-29T13:32:47.401Z,27.35
2019-04-29T13:33:22.662Z,27.76
2019-04-29T13:35:18.029Z,27.38
2019-04-29T13:37:48.079Z,27.38
2019-04-29T13:40:18.624Z,27.17
2019-04-29T13:42:50.906Z,27.14
2019-04-29T13:45:37.225Z,26.74
2019-04-29T13:48:24.278Z,26.42
2019-04-29T13:50:55.985Z,26.71
2019-04-29T13:53:25.985Z,26.24
2019-04-29T13:56:11.103Z,26.40
2019-04-29T13:58:29.312Z,26.45
2019-04-29T14:01:03.858Z,25.91
2019-04-29T14:03:35.494Z,23.79
2019-04-29T14:06:07.281Z,23.88
2019-04-29T14:08:37.331Z,24.10
2019-04-29T14:11:07.505Z,24.99
2019-04-29T14:13:39.020Z,24.61
2019-04-29T14:16:11.954Z,25.48
2019-04-29T14:18:43.590Z,25.56
2019-04-29T14:21:12.828Z,25.56
2019-04-29T14:23:42.829Z,25.90
2019-04-29T14:26:13.059Z,25.65
2019-04-29T14:28:43.135Z,25.68
2019-04-29T14:31:13.267Z,25.57
2019-04-29T14:33:47.856Z,25.23
2019-04-29T14:36:19.898Z,25.33
2019-04-29T14:38:49.605Z,25.45
2019-04-29T14:41:20.992Z,25.51
2019-04-29T14:44:04.594Z,25.51
2019-04-29T14:46:41.815Z,25.77
2019-04-29T14:49:13.476Z,26.26
2019-04-29T14:51:43.533Z,26.36
2019-04-29T14:54:13.578Z,25.59
2019-04-29T14:56:43.562Z,25.90
2019-04-29T14:59:13.863Z,25.90
2019-04-29T15:01:45.692Z,26.09
2019-04-29T15:04:18.902Z,26.66
2019-04-29T15:06:50.353Z,26.03
2019-04-29T15:09:20.480Z,26.04
2019-04-29T15:11:52.180Z,26.49
2019-04-29T15:14:27.364Z,26.52
2019-04-29T15:16:59.337Z,25.41
2019-04-29T15:19:49.345Z,25.94
2019-04-29T15:22:19.688Z,25.91
2019-04-29T15:24:49.749Z,26.05
2019-04-29T15:27:19.732Z,26.30
2019-04-29T15:29:49.728Z,25.64
2019-04-29T15:32:22.070Z,26.20
2019-04-29T15:34:51.482Z,26.24
2019-04-29T15:37:21.490Z,25.59
2019-04-29T15:39:51.510Z,26.12
2019-04-29T15:42:21.500Z,26.18
2019-04-29T15:44:55.638Z,25.35
2019-04-29T15:47:27.555Z,24.88
2019-04-29T15:49:55.601Z,24.97
2019-04-29T15:52:27.739Z,25.22
2019-04-29T15:54:57.869Z,25.54
2019-04-29T15:57:28.163Z,26.05
2019-04-29T15:59:59.685Z,26.08
2019-04-29T16:02:30.054Z,25.96
2019-04-29T16:05:17.722Z,25.85
2019-04-29T16:08:01.372Z,25.43
2019-04-29T16:10:38.843Z,24.97
2019-04-29T16:13:16.505Z,24.54
2019-04-29T16:15:46.501Z,24.72
2019-04-29T16:18:16.573Z,24.14
2019-04-29T16:20:46.605Z,24.21
2019-04-29T16:23:16.659Z,24.13
2019-04-29T16:25:52.257Z,23.85
2019-04-29T16:28:24.456Z,23.97
2019-04-29T16:30:51.174Z,24.35
2019-04-29T16:33:21.173Z,24.34
2019-04-29T16:35:52.288Z,24.59
2019-04-29T16:38:23.451Z,24.93
2019-04-29T16:40:57.196Z,24.88
2019-04-29T16:43:31.257Z,24.83
2019-04-29T16:46:11.772Z,24.87
2019-04-29T16:48:41.974Z,24.80
2019-04-29T16:51:14.159Z,24.62
2019-04-29T16:53:43.745Z,24.71
2019-04-29T16:56:16.376Z,24.37
2019-04-29T16:58:45.602Z,24.47
2019-04-29T17:01:15.952Z,24.37
2019-04-29T17:03:45.959Z,24.40
2019-04-29T17:06:15.962Z,24.44
2019-04-29T17:09:05.022Z,24.58
2019-04-29T17:11:39.507Z,24.36
2019-04-29T17:14:12.634Z,24.46
2019-04-29T17:16:41.431Z,24.25
2019-04-29T17:19:12.719Z,24.37
2019-04-29T17:21:42.791Z,23.97
2019-04-29T17:24:12.927Z,24.12
2019-04-29T17:26:44.643Z,24.11
2019-04-29T17:29:38.503Z,23.59
2019-04-29T17:32:00.418Z,23.73
2019-04-29T17:34:56.616Z,23.67
2019-04-29T17:37:04.281Z,23.56
2019-04-29T17:39:34.273Z,23.50
2019-04-29T17:42:04.500Z,23.45
2019-04-29T17:44:46.768Z,23.42
2019-04-29T17:47:34.505Z,23.23
2019-04-29T17:50:30.038Z,23.08
2019-04-29T17:52:51.990Z,23.05
2019-04-29T17:55:41.052Z,22.78
2019-04-29T17:58:13.145Z,22.80
2019-04-29T18:00:55.489Z,22.65
2019-04-29T18:03:25.147Z,22.70
2019-04-29T18:05:57.673Z,22.48
2019-04-29T18:08:32.604Z,22.51
2019-04-29T18:11:07.973Z,22.37
2019-04-29T18:13:36.224Z,22.14
2019-04-29T18:16:17.484Z,22.18
2019-04-29T18:18:48.618Z,22.10
2019-04-29T18:21:16.455Z,21.96
2019-04-29T18:23:51.504Z,21.77
2019-04-29T18:26:29.211Z,21.70
2019-04-29T18:29:03.418Z,21.43
2019-04-29T18:31:33.597Z,21.41
2019-04-29T18:34:05.482Z,21.30
2019-04-29T18:36:35.352Z,21.09
2019-04-29T18:39:08.838Z,20.91
2019-04-29T18:44:55.125Z,20.93
2019-04-29T18:47:22.559Z,20.83
2019-04-29T18:49:49.894Z,20.71
2019-04-29T18:52:25.809Z,20.70
2019-04-29T18:54:51.690Z,20.62
2019-04-29T18:57:29.476Z,20.68
2019-04-29T18:59:55.065Z,20.69
2019-04-29T19:02:27.417Z,20.61
2019-04-29T19:04:58.626Z,19.32
2019-04-29T19:07:31.773Z,19.79
2019-04-29T19:10:00.409Z,19.53
2019-04-29T19:12:31.705Z,19.62
2019-04-29T19:15:05.071Z,19.85
2019-04-29T19:17:36.741Z,19.74
2019-04-29T19:20:12.858Z,19.76
2019-04-29T19:22:44.171Z,19.62
2019-04-29T19:25:12.785Z,19.58
2019-04-29T19:27:42.889Z,19.47
2019-04-29T19:30:16.043Z,19.55
2019-04-29T19:32:46.841Z,19.25
2019-04-29T19:35:18.260Z,19.40
2019-04-29T19:37:48.289Z,19.43
2019-04-29T19:40:18.497Z,19.55
2019-04-29T19:42:48.565Z,19.49
2019-04-29T19:45:19.711Z,19.28
2019-04-29T19:47:53.132Z,18.98
2019-04-29T19:50:21.495Z,18.57
2019-04-29T19:52:51.641Z,18.75
2019-04-29T19:55:21.775Z,18.79
2019-04-29T19:57:52.623Z,18.43
2019-04-29T20:00:29.050Z,18.52
2019-04-29T20:02:57.266Z,18.30
2019-04-29T20:05:34.093Z,18.52
2019-04-29T20:08:01.206Z,18.38
2019-04-29T20:10:36.469Z,18.07
2019-04-29T20:13:03.793Z,17.98
2019-04-29T20:15:37.798Z,18.04
2019-04-29T20:18:13.304Z,18.03
2019-04-29T20:21:08.122Z,18.06
2019-04-29T20:23:29.678Z,18.08
2019-04-29T20:26:12.801Z,17.99
2019-04-29T20:28:31.850Z,17.45
2019-04-29T20:31:16.475Z,17.25
2019-04-29T20:33:35.948Z,17.47
2019-04-29T20:36:06.405Z,17.44
2019-04-29T20:38:38.867Z,17.38
2019-04-29T20:41:13.018Z,17.26
2019-04-29T20:43:41.728Z,17.20
2019-04-29T20:46:11.842Z,17.11
2019-04-29T20:48:42.233Z,16.86
2019-04-29T20:51:14.156Z,16.65
2019-04-29T20:53:46.198Z,16.66
2019-04-29T20:56:23.660Z,16.60
2019-04-29T20:58:48.371Z,16.26
2019-04-29T21:01:20.318Z,16.20
2019-04-29T21:03:53.800Z,16.09
2019-04-29T21:06:22.501Z,16.17
2019-04-29T21:08:52.526Z,16.20
2019-04-29T21:11:32.774Z,16.06
2019-04-29T21:14:05.487Z,15.71
2019-04-29T21:16:37.443Z,15.87
2019-04-29T21:19:08.978Z,15.80
2019-04-29T21:21:41.919Z,15.61
2019-04-29T21:24:16.789Z,15.50
2019-04-29T21:26:45.968Z,15.46
2019-04-29T21:29:19.441Z,15.35
2019-04-29T21:31:50.743Z,15.14
2019-04-29T21:34:21.460Z,15.02
2019-04-29T21:36:53.211Z,15.05
2019-04-29T21:39:37.878Z,14.92
2019-04-29T21:42:15.659Z,14.93
2019-04-29T21:44:47.024Z,14.88
2019-04-29T21:47:17.502Z,14.91
2019-04-29T21:49:49.914Z,14.70
2019-04-29T21:52:19.592Z,14.67
2019-04-29T21:54:51.015Z,14.61
2019-04-29T21:57:23.697Z,14.47
2019-04-29T21:59:52.757Z,14.56
2019-04-29T22:02:22.997Z,14.33
2019-04-29T22:04:55.184Z,14.22
2019-04-29T22:07:25.859Z,14.02
2019-04-29T22:09:57.039Z,13.97
2019-04-29T22:12:27.055Z,13.91
2019-04-29T22:14:59.405Z,13.81
2019-04-29T22:17:32.859Z,13.71
2019-04-29T22:20:04.167Z,13.58
2019-04-29T22:22:35.065Z,13.74
2019-04-29T22:25:09.840Z,13.61
2019-04-29T22:27:39.492Z,13.64
2019-04-29T22:30:16.870Z,13.56
2019-04-29T22:32:46.833Z,13.60
2019-04-29T22:35:16.601Z,13.36
2019-04-29T22:37:46.746Z,13.44
2019-04-29T22:40:17.395Z,13.29
2019-04-29T22:42:50.229Z,13.35
2019-04-29T22:45:22.215Z,13.09
2019-04-29T22:47:54.329Z,13.16
2019-04-29T22:50:24.013Z,12.99
2019-04-29T22:52:56.696Z,12.92
2019-04-29T22:55:30.797Z,12.69
2019-04-29T22:58:00.843Z,12.65
2019-04-29T23:00:32.825Z,12.58
2019-04-29T23:03:03.563Z,12.57
2019-04-29T23:05:35.921Z,12.47
2019-04-29T23:08:05.684Z,12.56
2019-04-29T23:10:37.308Z,12.46
2019-04-29T23:13:07.381Z,12.26
2019-04-29T23:15:37.444Z,12.30
2019-04-29T23:18:07.805Z,12.14
2019-04-29T23:20:59.561Z,12.08
2019-04-29T23:23:38.360Z,11.98
2019-04-29T23:26:08.470Z,12.02
2019-04-29T23:28:38.480Z,12.17
2019-04-29T23:31:08.605Z,12.20
2019-04-29T23:33:38.643Z,12.21
2019-04-29T23:36:09.682Z,12.27
2019-04-29T23:38:42.712Z,12.27
2019-04-29T23:41:12.295Z,12.27
2019-04-29T23:43:42.383Z,12.20
2019-04-29T23:46:12.471Z,12.18
2019-04-29T23:48:42.615Z,12.20
2019-04-29T23:51:12.629Z,12.21
2019-04-29T23:53:42.724Z,12.30
2019-04-29T23:56:15.357Z,12.34
2019-04-29T23:58:50.064Z,12.35
